Terminal Aerodrome Forecast
Issued by NWS

Home | Current Version | Previous Version | Text Only | Print | Product List | Glossary On
Versions: 1 2 3 4 5 6 7 8 9 10 11 12 13 14 15 16 17 18 19 20 21 22 23 24 25 26 27
541
FTUS43 KTOP 191125
TAFFOE
TAF
KFOE 191125Z 1912/2012 15006KT P6SM SKC
     FM191500 17010KT P6SM FEW150
     FM191800 16015G23KT P6SM FEW060 SCT150=

USA.gov is the U.S. government's official web portal to all federal, state and local government web resources and services.